createdAt,value
2023-04-19T00:03:35.065Z,2.40
2023-04-19T00:06:03.881Z,2.40
2023-04-19T00:08:32.004Z,2.20
2023-04-19T00:11:01.423Z,2.20
2023-04-19T00:13:29.989Z,2.10
2023-04-19T00:15:58.339Z,2.50
2023-04-19T00:18:26.632Z,2.20
2023-04-19T00:20:54.786Z,2.00
2023-04-19T00:23:23.029Z,2.10
2023-04-19T00:25:52.822Z,2.40
2023-04-19T00:28:21.538Z,2.40
2023-04-19T00:30:49.671Z,2.10
2023-04-19T00:33:18.611Z,2.20
2023-04-19T00:35:46.906Z,1.80
2023-04-19T00:38:15.605Z,1.90
2023-04-19T00:40:44.325Z,1.70
2023-04-19T00:43:17.814Z,2.00
2023-04-19T00:45:48.204Z,2.00
2023-04-19T00:48:17.078Z,1.90
2023-04-19T00:50:46.138Z,2.10
2023-04-19T00:53:16.037Z,2.20
2023-04-19T00:55:44.864Z,2.20
2023-04-19T00:58:14.708Z,2.10
2023-04-19T01:00:44.428Z,1.90
2023-04-19T01:03:13.952Z,2.10
2023-04-19T01:05:42.803Z,1.80
2023-04-19T01:08:11.139Z,2.20
2023-04-19T01:10:39.282Z,1.70
2023-04-19T01:13:07.790Z,2.00
2023-04-19T01:15:37.459Z,2.20
2023-04-19T01:18:05.850Z,1.70
2023-04-19T01:20:34.508Z,1.80
2023-04-19T01:23:02.774Z,1.60
2023-04-19T01:25:30.870Z,1.70
2023-04-19T01:27:59.298Z,1.50
2023-04-19T01:30:27.674Z,1.70
2023-04-19T01:32:55.821Z,1.80
2023-04-19T01:35:24.177Z,1.50
2023-04-19T01:37:53.061Z,1.50
2023-04-19T01:40:24.508Z,1.50
2023-04-19T01:42:54.284Z,1.60
2023-04-19T01:45:22.666Z,1.60
2023-04-19T01:47:51.791Z,1.60
2023-04-19T01:50:20.765Z,1.80
2023-04-19T01:52:49.383Z,1.80
2023-04-19T01:55:17.764Z,1.30
2023-04-19T01:57:45.897Z,1.50
2023-04-19T02:00:14.777Z,1.30
2023-04-19T02:02:44.250Z,1.40
2023-04-19T02:05:13.884Z,1.40
2023-04-19T02:07:42.572Z,1.30
2023-04-19T02:10:12.332Z,1.40
2023-04-19T02:12:41.677Z,1.20
2023-04-19T02:15:10.502Z,1.20
2023-04-19T02:17:38.954Z,1.40
2023-04-19T02:20:08.099Z,1.30
2023-04-19T02:22:36.340Z,1.20
2023-04-19T02:25:05.482Z,1.00
2023-04-19T02:27:33.667Z,1.40
2023-04-19T02:30:01.899Z,1.30
2023-04-19T02:32:31.376Z,1.60
2023-04-19T02:34:59.823Z,1.20
2023-04-19T02:37:28.661Z,1.30
2023-04-19T02:39:56.730Z,1.30
2023-04-19T02:42:24.943Z,1.30
2023-04-19T02:44:53.182Z,1.20
2023-04-19T02:47:26.636Z,1.50
2023-04-19T02:49:55.591Z,1.30
2023-04-19T02:52:23.773Z,1.30
2023-04-19T02:54:52.400Z,1.20
2023-04-19T02:57:20.507Z,1.30
2023-04-19T02:59:49.312Z,1.10
2023-04-19T03:02:18.841Z,1.20
2023-04-19T03:04:48.913Z,1.10
2023-04-19T03:07:16.974Z,1.30
2023-04-19T03:09:45.504Z,1.30
2023-04-19T03:12:13.634Z,1.30
2023-04-19T03:14:41.827Z,1.30
2023-04-19T03:17:10.150Z,1.10
2023-04-19T03:19:38.319Z,1.20
2023-04-19T03:22:06.649Z,1.30
2023-04-19T03:24:37.795Z,1.30
2023-04-19T03:27:06.845Z,1.30
2023-04-19T03:29:35.572Z,1.00
2023-04-19T03:32:03.960Z,1.20
2023-04-19T03:34:32.133Z,1.20
2023-04-19T03:37:01.234Z,1.00
2023-04-19T03:39:29.595Z,1.20
2023-04-19T03:41:57.652Z,1.10
2023-04-19T03:44:25.934Z,1.30
2023-04-19T03:46:54.117Z,1.10
2023-04-19T03:49:22.782Z,0.90
2023-04-19T03:51:51.965Z,1.00
2023-04-19T03:54:20.503Z,1.10
2023-04-19T03:56:48.705Z,1.30
2023-04-19T03:59:17.027Z,1.40
2023-04-19T04:01:46.674Z,1.20
2023-04-19T04:04:15.474Z,1.20
2023-04-19T04:06:44.498Z,1.20
2023-04-19T04:09:12.855Z,1.30
2023-04-19T04:11:41.285Z,1.20
2023-04-19T04:14:09.469Z,1.10
2023-04-19T04:16:38.211Z,1.40
2023-04-19T04:19:07.412Z,1.30
2023-04-19T04:21:35.611Z,1.30
2023-04-19T04:24:04.187Z,1.20
2023-04-19T04:26:32.717Z,1.20
2023-04-19T04:29:01.543Z,1.30
2023-04-19T04:31:29.880Z,1.50
2023-04-19T04:33:58.679Z,1.30
2023-04-19T04:36:27.485Z,1.50
2023-04-19T04:38:56.232Z,1.20
2023-04-19T04:41:24.240Z,1.90
2023-04-19T04:44:08.304Z,1.40
2023-04-19T04:46:39.394Z,1.20
2023-04-19T04:49:07.534Z,1.70
2023-04-19T04:51:36.271Z,1.30
2023-04-19T04:54:04.734Z,1.30
2023-04-19T04:56:32.944Z,1.70
2023-04-19T04:59:01.152Z,3.20
2023-04-19T05:01:30.902Z,4.60
2023-04-19T05:04:00.583Z,5.50
2023-04-19T05:06:28.869Z,6.00
2023-04-19T05:08:57.416Z,4.50
2023-04-19T05:11:27.615Z,4.00
2023-04-19T05:13:55.804Z,2.90
2023-04-19T05:16:24.302Z,2.60
2023-04-19T05:18:52.563Z,2.60
2023-04-19T05:21:20.745Z,1.60
2023-04-19T05:23:49.717Z,1.40
2023-04-19T05:26:17.925Z,1.60
2023-04-19T05:28:46.644Z,1.20
2023-04-19T05:31:15.289Z,1.50
2023-04-19T05:33:44.086Z,1.40
2023-04-19T05:36:12.238Z,1.70
2023-04-19T05:38:40.551Z,1.40
2023-04-19T05:41:08.869Z,1.60
2023-04-19T05:43:37.053Z,2.10
2023-04-19T05:46:06.049Z,1.40
2023-04-19T05:48:34.312Z,1.40
2023-04-19T05:51:03.613Z,1.50
2023-04-19T05:53:31.740Z,1.50
2023-04-19T05:55:59.867Z,1.70
2023-04-19T05:58:28.023Z,1.50
2023-04-19T06:00:57.650Z,1.80
2023-04-19T06:03:28.737Z,1.50
2023-04-19T06:06:00.466Z,1.60
2023-04-19T06:08:29.379Z,2.20
2023-04-19T06:11:02.119Z,1.60
2023-04-19T06:13:33.541Z,1.60
2023-04-19T06:16:02.925Z,1.80
2023-04-19T06:18:31.448Z,1.70
2023-04-19T06:21:00.224Z,1.70
2023-04-19T06:23:28.442Z,1.50
2023-04-19T06:25:57.112Z,1.60
2023-04-19T06:28:25.350Z,1.80
2023-04-19T06:30:53.588Z,1.80
2023-04-19T06:33:22.103Z,1.80
2023-04-19T06:35:50.399Z,3.00
2023-04-19T06:38:19.190Z,2.60
2023-04-19T06:40:47.544Z,2.20
2023-04-19T06:43:15.849Z,2.30
2023-04-19T06:45:44.457Z,2.00
2023-04-19T06:48:12.830Z,2.20
2023-04-19T06:50:41.522Z,2.90
2023-04-19T06:53:09.958Z,3.20
2023-04-19T06:55:38.891Z,2.30
2023-04-19T06:58:07.321Z,2.70
2023-04-19T07:00:35.684Z,2.60
2023-04-19T07:03:05.340Z,2.70
2023-04-19T07:05:34.076Z,2.60
2023-04-19T07:08:02.227Z,2.80
2023-04-19T07:10:30.397Z,2.50
2023-04-19T07:12:58.591Z,3.10
2023-04-19T07:15:27.995Z,2.50
2023-04-19T07:17:56.823Z,2.80
2023-04-19T07:20:26.367Z,3.10
2023-04-19T07:22:55.147Z,2.40
2023-04-19T07:25:24.529Z,2.10
2023-04-19T07:27:54.434Z,2.50
2023-04-19T07:30:23.240Z,2.30
2023-04-19T07:32:51.957Z,1.90
2023-04-19T07:35:20.913Z,2.50
2023-04-19T07:37:49.745Z,2.20
2023-04-19T07:40:18.789Z,2.50
2023-04-19T07:42:46.948Z,1.90
2023-04-19T07:45:15.906Z,1.70
2023-04-19T07:47:45.406Z,1.80
2023-04-19T07:50:14.110Z,2.10
2023-04-19T07:52:42.510Z,1.40
2023-04-19T07:55:11.685Z,1.30
2023-04-19T07:57:41.862Z,1.20
2023-04-19T08:00:10.800Z,1.50
2023-04-19T08:02:39.689Z,2.00
2023-04-19T08:05:08.958Z,1.20
2023-04-19T08:07:38.397Z,1.20
2023-04-19T08:10:09.346Z,1.20
2023-04-19T08:12:45.262Z,1.60
2023-04-19T08:15:52.514Z,1.40
2023-04-19T08:18:08.139Z,1.30
2023-04-19T08:20:37.373Z,1.20
2023-04-19T08:23:17.714Z,1.70
2023-04-19T08:25:51.518Z,1.60
2023-04-19T08:28:21.362Z,2.00
2023-04-19T08:30:51.067Z,1.30
2023-04-19T08:33:19.837Z,1.50
2023-04-19T08:35:48.215Z,1.40
2023-04-19T08:38:16.890Z,1.60
2023-04-19T08:40:53.840Z,1.40
2023-04-19T08:43:24.786Z,1.80
2023-04-19T08:45:55.280Z,1.50
2023-04-19T08:48:24.561Z,1.40
2023-04-19T08:51:04.526Z,1.40
2023-04-19T08:53:35.042Z,1.30
2023-04-19T08:56:17.381Z,1.40
2023-04-19T08:59:07.503Z,1.60
2023-04-19T09:01:44.518Z,1.40
2023-04-19T09:06:44.671Z,1.40
2023-04-19T09:09:34.177Z,1.50
2023-04-19T09:12:18.556Z,1.60
2023-04-19T09:15:00.706Z,1.60
2023-04-19T09:17:32.471Z,1.50
2023-04-19T09:20:01.042Z,1.40
2023-04-19T09:22:29.776Z,1.60
2023-04-19T09:27:35.433Z,1.60
2023-04-19T09:30:10.805Z,1.70
2023-04-19T09:32:48.795Z,1.70
2023-04-19T09:35:17.782Z,2.10
2023-04-19T09:40:33.101Z,1.40
2023-04-19T09:45:45.375Z,1.80
2023-04-19T09:48:15.047Z,1.90
2023-04-19T09:51:05.941Z,1.80
2023-04-19T09:53:40.864Z,1.70
2023-04-19T09:56:11.868Z,1.80
2023-04-19T09:58:50.075Z,1.60
2023-04-19T10:01:25.110Z,1.70
2023-04-19T10:03:54.457Z,1.90
2023-04-19T10:08:56.232Z,1.80
2023-04-19T10:11:27.294Z,1.90
2023-04-19T10:14:00.232Z,2.10
2023-04-19T10:16:30.984Z,2.20
2023-04-19T10:19:03.760Z,2.40
2023-04-19T10:21:32.907Z,1.70
2023-04-19T10:24:02.220Z,1.70
2023-04-19T10:26:30.990Z,1.90
2023-04-19T10:28:59.454Z,1.90
2023-04-19T10:31:27.811Z,2.00
2023-04-19T10:33:56.235Z,2.50
2023-04-19T10:36:28.340Z,2.30
2023-04-19T10:38:56.610Z,2.10
2023-04-19T10:41:57.563Z,2.10
2023-04-19T10:44:26.198Z,2.00
2023-04-19T10:46:54.481Z,2.20
2023-04-19T10:49:24.638Z,2.30
2023-04-19T10:51:52.879Z,2.20
2023-04-19T10:54:33.035Z,1.90
2023-04-19T10:57:01.268Z,1.90
2023-04-19T10:59:31.563Z,1.90
2023-04-19T11:02:02.567Z,2.10
2023-04-19T11:04:40.021Z,2.20
2023-04-19T11:07:08.769Z,1.90
2023-04-19T11:09:39.263Z,1.80
2023-04-19T11:12:13.805Z,1.60
2023-04-19T11:14:51.555Z,1.70
2023-04-19T11:17:21.497Z,1.70
2023-04-19T11:20:01.646Z,2.10
2023-04-19T11:22:34.332Z,2.00
2023-04-19T11:25:07.116Z,1.90
2023-04-19T11:27:35.506Z,2.00
2023-04-19T11:30:07.646Z,1.90
2023-04-19T11:32:36.982Z,2.00
2023-04-19T11:35:09.150Z,1.80
2023-04-19T11:37:40.593Z,1.60
2023-04-19T11:40:09.401Z,1.60
2023-04-19T11:42:37.617Z,2.20
2023-04-19T11:45:13.232Z,1.80
2023-04-19T11:47:51.928Z,1.70
2023-04-19T11:50:58.543Z,1.70
2023-04-19T11:53:28.079Z,1.70
2023-04-19T11:55:57.374Z,2.10
2023-04-19T11:58:27.889Z,2.30
2023-04-19T12:00:57.902Z,1.80
2023-04-19T12:03:27.014Z,1.70
2023-04-19T12:05:58.778Z,2.00
2023-04-19T12:08:32.231Z,2.10
2023-04-19T12:11:03.574Z,2.30
2023-04-19T12:13:33.427Z,2.10
2023-04-19T12:16:01.756Z,2.40
2023-04-19T12:18:47.115Z,2.10
2023-04-19T12:21:33.142Z,2.10
2023-04-19T12:24:02.844Z,2.00
2023-04-19T12:26:32.366Z,1.90
2023-04-19T12:29:02.810Z,1.90
2023-04-19T12:31:31.922Z,1.80
2023-04-19T12:34:00.317Z,1.80
2023-04-19T12:36:28.796Z,1.90
2023-04-19T12:38:57.044Z,1.90
2023-04-19T12:41:25.272Z,1.90
2023-04-19T12:43:53.883Z,2.00
2023-04-19T12:46:22.194Z,2.40
2023-04-19T12:48:50.703Z,2.00
2023-04-19T12:51:19.612Z,2.20
2023-04-19T12:53:49.395Z,1.90
2023-04-19T12:56:18.252Z,2.10
2023-04-19T12:58:46.587Z,2.00
2023-04-19T13:01:17.729Z,2.10
2023-04-19T13:03:46.190Z,2.00
2023-04-19T13:06:14.726Z,1.70
2023-04-19T13:08:46.557Z,1.90
2023-04-19T13:11:16.951Z,2.10
2023-04-19T13:13:45.416Z,2.10
2023-04-19T13:16:13.868Z,1.90
2023-04-19T13:18:42.376Z,1.90
2023-04-19T13:21:10.535Z,2.10
2023-04-19T13:23:38.761Z,2.00
2023-04-19T13:26:07.315Z,1.90
2023-04-19T13:28:35.669Z,2.10
2023-04-19T13:31:06.048Z,2.20
2023-04-19T13:33:34.581Z,1.80
2023-04-19T13:36:03.037Z,1.90
2023-04-19T13:38:31.772Z,2.40
2023-04-19T13:41:03.964Z,2.50
2023-04-19T13:43:32.724Z,2.70
2023-04-19T13:46:01.055Z,2.10
2023-04-19T13:48:29.936Z,2.20
2023-04-19T13:50:59.802Z,2.20
2023-04-19T13:53:28.638Z,2.50
2023-04-19T13:55:57.290Z,2.30
2023-04-19T13:58:25.638Z,2.10
2023-04-19T14:00:54.557Z,2.10
2023-04-19T14:03:24.687Z,1.40
2023-04-19T14:05:53.221Z,2.10
2023-04-19T14:08:21.472Z,2.20
2023-04-19T14:10:51.459Z,2.60
2023-04-19T14:13:19.797Z,2.10
2023-04-19T14:15:48.140Z,2.20
2023-04-19T14:18:16.399Z,2.70
2023-04-19T14:20:44.809Z,2.30
2023-04-19T14:23:13.178Z,2.30
2023-04-19T14:25:41.461Z,2.30
2023-04-19T14:28:10.332Z,2.60
2023-04-19T14:30:39.363Z,2.80
2023-04-19T14:33:08.000Z,2.70
2023-04-19T14:35:36.487Z,2.30
2023-04-19T14:38:05.168Z,2.60
2023-04-19T14:40:34.006Z,2.50
2023-04-19T14:43:02.315Z,2.50
2023-04-19T14:45:30.562Z,2.20
2023-04-19T14:47:59.045Z,2.50
2023-04-19T14:50:27.309Z,2.40
2023-04-19T14:52:55.611Z,2.70
2023-04-19T14:55:25.708Z,2.10
2023-04-19T14:57:53.850Z,2.20
2023-04-19T15:00:23.434Z,2.30
2023-04-19T15:02:51.921Z,2.20
2023-04-19T15:05:23.408Z,2.30
2023-04-19T15:07:51.996Z,2.30
2023-04-19T15:10:20.092Z,2.00
2023-04-19T15:12:48.304Z,2.50
2023-04-19T15:15:16.919Z,2.60
2023-04-19T15:17:45.220Z,2.30
2023-04-19T15:20:13.777Z,2.30
2023-04-19T15:22:42.238Z,2.00
2023-04-19T15:25:13.391Z,2.10
2023-04-19T15:27:41.566Z,2.30
2023-04-19T15:30:10.745Z,2.40
2023-04-19T15:32:39.221Z,2.50
2023-04-19T15:35:08.102Z,2.00
2023-04-19T15:37:37.370Z,2.60
2023-04-19T15:40:06.369Z,2.40
2023-04-19T15:42:35.233Z,2.10
2023-04-19T15:45:04.722Z,2.50
2023-04-19T15:47:34.591Z,2.10
2023-04-19T15:50:02.897Z,2.30
2023-04-19T15:52:31.129Z,2.40
2023-04-19T15:54:59.357Z,2.80
2023-04-19T15:57:27.747Z,2.60
2023-04-19T15:59:55.933Z,2.20
2023-04-19T16:02:24.190Z,2.60
2023-04-19T16:04:52.771Z,2.20
2023-04-19T16:07:22.036Z,2.40
2023-04-19T16:09:50.438Z,1.90
2023-04-19T16:12:18.653Z,2.70
2023-04-19T16:14:47.466Z,2.60
2023-04-19T16:17:15.722Z,2.60
2023-04-19T16:19:44.024Z,2.10
2023-04-19T16:22:12.713Z,2.60
2023-04-19T16:24:41.277Z,2.70
2023-04-19T16:27:09.452Z,2.40
2023-04-19T16:29:37.632Z,2.50
2023-04-19T16:32:06.628Z,2.70
2023-04-19T16:34:35.092Z,2.80
2023-04-19T16:37:03.936Z,2.70
2023-04-19T16:39:32.402Z,3.10
2023-04-19T16:42:00.674Z,2.90
2023-04-19T16:44:29.403Z,2.70
2023-04-19T16:46:57.636Z,2.20
2023-04-19T16:49:26.025Z,2.10
2023-04-19T16:51:54.727Z,2.20
2023-04-19T16:54:23.205Z,2.30
2023-04-19T16:56:51.521Z,2.40
2023-04-19T16:59:19.833Z,2.50
2023-04-19T17:01:50.664Z,2.40
2023-04-19T17:04:18.882Z,2.40
2023-04-19T17:06:47.305Z,2.70
2023-04-19T17:09:15.534Z,2.80
2023-04-19T17:11:44.141Z,2.30
2023-04-19T17:14:12.598Z,2.30
2023-04-19T17:16:40.763Z,2.10
2023-04-19T17:19:08.897Z,2.10
2023-04-19T17:21:40.620Z,2.50
2023-04-19T17:24:09.104Z,2.70
2023-04-19T17:26:39.067Z,2.30
2023-04-19T17:29:09.724Z,2.30
2023-04-19T17:31:38.832Z,2.80
2023-04-19T17:34:08.481Z,2.80
2023-04-19T17:36:38.606Z,2.10
2023-04-19T17:39:08.427Z,2.20
2023-04-19T17:41:37.731Z,2.50
2023-04-19T17:44:06.875Z,2.50
2023-04-19T17:46:35.098Z,2.40
2023-04-19T17:49:03.383Z,1.90
2023-04-19T17:51:32.408Z,2.60
2023-04-19T17:54:00.583Z,2.60
2023-04-19T17:56:28.874Z,2.60
2023-04-19T17:58:57.889Z,2.20
2023-04-19T18:01:27.448Z,2.10
2023-04-19T18:03:56.705Z,2.40
2023-04-19T18:06:25.286Z,2.40
2023-04-19T18:08:53.888Z,2.40
2023-04-19T18:11:22.043Z,2.20
2023-04-19T18:13:51.866Z,2.40
2023-04-19T18:16:21.857Z,2.20
2023-04-19T18:18:54.297Z,2.50
2023-04-19T18:21:23.801Z,2.00
2023-04-19T18:23:53.709Z,1.60
2023-04-19T18:26:25.371Z,2.00
2023-04-19T18:28:54.856Z,2.30
2023-04-19T18:31:25.694Z,5.00
2023-04-19T18:34:00.482Z,2.10
2023-04-19T18:36:30.162Z,2.00
2023-04-19T18:39:00.770Z,2.40
2023-04-19T18:41:30.028Z,2.00
2023-04-19T18:44:30.012Z,1.90
2023-04-19T18:46:52.770Z,2.10
2023-04-19T18:49:25.283Z,2.20
2023-04-19T18:51:54.596Z,2.30
2023-04-19T18:54:23.642Z,2.20
2023-04-19T18:59:29.968Z,2.10
2023-04-19T19:02:00.432Z,2.40
2023-04-19T19:04:46.815Z,2.30
2023-04-19T19:07:34.969Z,2.10
2023-04-19T19:12:42.160Z,1.90
2023-04-19T19:15:15.031Z,2.20
2023-04-19T19:17:48.828Z,2.10
2023-04-19T19:20:24.303Z,1.90
2023-04-19T19:22:55.385Z,2.30
2023-04-19T19:25:26.830Z,2.40
2023-04-19T19:28:07.537Z,2.20
2023-04-19T19:30:39.498Z,2.40
2023-04-19T19:33:12.098Z,2.50
2023-04-19T19:35:41.925Z,2.50
2023-04-19T19:38:11.837Z,2.20
2023-04-19T19:43:20.264Z,2.70
2023-04-19T19:45:50.448Z,2.60
2023-04-19T19:48:18.650Z,2.70
2023-04-19T19:51:17.195Z,2.20
2023-04-19T19:56:04.318Z,2.40
2023-04-19T19:58:49.720Z,2.80
2023-04-19T20:01:22.500Z,2.00
2023-04-19T20:03:56.539Z,2.80
2023-04-19T20:07:21.506Z,2.10
2023-04-19T20:11:42.838Z,2.90
2023-04-19T20:14:13.086Z,2.50
2023-04-19T20:16:42.907Z,2.20
2023-04-19T20:19:12.380Z,2.20
2023-04-19T20:21:41.706Z,2.40
2023-04-19T20:24:13.966Z,2.40
2023-04-19T20:26:43.738Z,2.30
2023-04-19T20:29:13.721Z,2.60
2023-04-19T20:31:43.233Z,2.30
2023-04-19T20:34:11.515Z,2.80
2023-04-19T20:36:41.013Z,2.60
2023-04-19T20:39:10.765Z,2.40
2023-04-19T20:41:40.187Z,2.40
2023-04-19T20:44:10.164Z,2.30
2023-04-19T20:46:39.283Z,2.40
2023-04-19T20:49:08.934Z,2.00
2023-04-19T20:51:39.040Z,2.00
2023-04-19T20:54:08.336Z,2.00
2023-04-19T20:56:36.447Z,1.80
2023-04-19T20:59:04.754Z,2.10
2023-04-19T21:01:33.462Z,2.20
2023-04-19T21:04:01.933Z,2.20
2023-04-19T21:06:31.038Z,2.10
2023-04-19T21:08:59.283Z,2.90
2023-04-19T21:11:27.387Z,2.30
2023-04-19T21:13:56.058Z,2.30
2023-04-19T21:16:24.358Z,2.70
2023-04-19T21:18:53.074Z,2.30
2023-04-19T21:21:21.590Z,2.70
2023-04-19T21:23:49.890Z,2.50
2023-04-19T21:26:18.571Z,2.60
2023-04-19T21:28:47.172Z,2.30
2023-04-19T21:31:15.653Z,2.50
2023-04-19T21:33:45.219Z,2.70
2023-04-19T21:36:13.607Z,2.70
2023-04-19T21:38:41.767Z,2.30
2023-04-19T21:41:09.958Z,2.40
2023-04-19T21:43:38.698Z,2.60
2023-04-19T21:46:06.874Z,2.40
2023-04-19T21:48:35.205Z,2.30
2023-04-19T21:51:03.683Z,2.50
2023-04-19T21:53:31.824Z,2.20
2023-04-19T21:56:00.054Z,2.40
2023-04-19T21:58:28.358Z,2.30
2023-04-19T22:00:56.575Z,2.40
2023-04-19T22:03:24.840Z,2.20
2023-04-19T22:05:53.181Z,2.10
2023-04-19T22:08:21.451Z,2.20
2023-04-19T22:10:49.592Z,2.40
2023-04-19T22:13:18.377Z,1.80
2023-04-19T22:15:46.688Z,2.40
2023-04-19T22:18:14.975Z,2.10
2023-04-19T22:20:43.316Z,2.50
2023-04-19T22:23:11.564Z,2.60
2023-04-19T22:25:39.746Z,1.80
2023-04-19T22:28:07.981Z,2.30
2023-04-19T22:30:36.184Z,2.30
2023-04-19T22:33:04.496Z,2.20
2023-04-19T22:35:33.616Z,2.00
2023-04-19T22:38:01.886Z,2.20
2023-04-19T22:40:30.153Z,2.20
2023-04-19T22:42:58.461Z,2.50
2023-04-19T22:45:26.755Z,2.30
2023-04-19T22:47:54.973Z,2.40
2023-04-19T22:50:23.359Z,2.20
2023-04-19T22:52:51.600Z,2.70
2023-04-19T22:55:19.927Z,2.70
2023-04-19T22:57:48.370Z,2.40
2023-04-19T23:00:17.037Z,2.50
2023-04-19T23:02:46.738Z,3.10
2023-04-19T23:05:15.457Z,2.70
2023-04-19T23:07:44.429Z,2.60
2023-04-19T23:10:12.768Z,3.10
2023-04-19T23:12:41.199Z,3.00
2023-04-19T23:15:11.517Z,2.50
2023-04-19T23:17:40.033Z,2.80
2023-04-19T23:20:09.734Z,2.50
2023-04-19T23:22:39.405Z,2.70
2023-04-19T23:25:08.582Z,2.70
2023-04-19T23:27:37.430Z,2.20
2023-04-19T23:30:07.166Z,2.00
2023-04-19T23:32:35.598Z,2.80
2023-04-19T23:35:04.994Z,2.70
2023-04-19T23:37:33.329Z,2.50
2023-04-19T23:40:01.492Z,3.20
2023-04-19T23:42:29.962Z,2.60
2023-04-19T23:44:58.864Z,2.60
2023-04-19T23:47:27.092Z,2.80
2023-04-19T23:49:55.297Z,2.70
2023-04-19T23:52:23.452Z,2.50
2023-04-19T23:54:52.314Z,2.30
2023-04-19T23:57:20.979Z,2.70
2023-04-19T23:59:49.946Z,2.50
